createdAt,value
2018-12-08T00:03:11.736Z,8.60
2018-12-08T00:08:15.019Z,8.40
2018-12-08T00:13:18.300Z,8.20
2018-12-08T00:18:21.563Z,8.00
2018-12-08T00:23:24.932Z,7.90
2018-12-08T00:28:28.280Z,7.80
2018-12-08T00:33:31.560Z,7.90
2018-12-08T00:38:34.860Z,7.80
2018-12-08T00:43:38.132Z,7.70
2018-12-08T00:48:41.407Z,7.70
2018-12-08T00:53:44.700Z,7.70
2018-12-08T00:58:48.025Z,7.70
2018-12-08T01:03:51.298Z,7.70
2018-12-08T01:08:54.586Z,7.70
2018-12-08T01:13:57.846Z,7.60
2018-12-08T01:19:01.122Z,7.50
2018-12-08T01:24:04.475Z,7.30
2018-12-08T01:29:07.749Z,7.20
2018-12-08T01:34:11.087Z,7.10
2018-12-08T01:39:14.374Z,7.00
2018-12-08T01:44:17.700Z,6.90
2018-12-08T01:49:20.999Z,6.90
2018-12-08T01:54:24.285Z,6.90
2018-12-08T01:59:27.627Z,6.90
2018-12-08T02:04:30.904Z,6.80
2018-12-08T02:09:34.170Z,7.00
2018-12-08T02:14:37.459Z,6.80
2018-12-08T02:19:40.838Z,6.70
2018-12-08T02:24:44.099Z,6.70
2018-12-08T02:29:47.359Z,6.70
2018-12-08T02:34:50.649Z,6.60
2018-12-08T02:39:54.103Z,6.60
2018-12-08T02:44:57.411Z,6.60
2018-12-08T02:50:00.675Z,6.60
2018-12-08T02:55:04.038Z,6.70
2018-12-08T03:00:07.905Z,6.60
2018-12-08T03:05:11.451Z,6.50
2018-12-08T03:15:18.353Z,6.40
2018-12-08T03:20:21.628Z,6.40
2018-12-08T03:25:24.976Z,6.50
2018-12-08T03:30:28.652Z,6.50
2018-12-08T03:35:31.989Z,6.40
2018-12-08T03:40:35.315Z,6.50
2018-12-08T03:45:38.592Z,6.40
2018-12-08T03:50:41.972Z,6.40
2018-12-08T03:55:45.287Z,6.30
2018-12-08T04:00:48.711Z,6.20
2018-12-08T04:05:52.034Z,6.30
2018-12-08T04:10:55.383Z,6.20
2018-12-08T04:15:58.648Z,6.30
2018-12-08T04:21:01.929Z,6.20
2018-12-08T04:26:05.322Z,6.20
2018-12-08T04:31:08.618Z,6.10
2018-12-08T04:36:11.943Z,6.20
2018-12-08T04:41:15.210Z,6.10
2018-12-08T04:46:18.484Z,6.10
2018-12-08T04:56:24.805Z,6.00
2018-12-08T05:01:28.087Z,6.00
2018-12-08T05:06:31.363Z,6.10
2018-12-08T05:11:34.639Z,6.10
2018-12-08T05:16:37.901Z,6.10
2018-12-08T05:26:44.191Z,5.90
2018-12-08T05:31:47.476Z,6.10
2018-12-08T05:36:50.780Z,6.20
2018-12-08T05:41:54.055Z,6.20
2018-12-08T05:46:57.426Z,6.10
2018-12-08T05:52:00.710Z,6.10
2018-12-08T05:57:03.976Z,6.20
2018-12-08T06:02:07.396Z,6.20
2018-12-08T06:07:10.686Z,6.20
2018-12-08T06:12:14.244Z,6.10
2018-12-08T06:17:17.615Z,6.00
2018-12-08T06:22:20.914Z,6.00
2018-12-08T06:27:39.787Z,6.00
2018-12-08T06:32:43.074Z,6.00
2018-12-08T06:37:46.356Z,6.00
2018-12-08T06:42:49.635Z,5.90
2018-12-08T06:47:53.011Z,5.90
2018-12-08T06:52:56.331Z,5.90
2018-12-08T06:57:59.664Z,5.90
2018-12-08T07:03:03.044Z,5.90
2018-12-08T07:08:06.306Z,5.80
2018-12-08T07:13:09.670Z,5.90
2018-12-08T07:18:12.946Z,5.90
2018-12-08T07:23:16.274Z,5.90
2018-12-08T07:28:21.287Z,5.90
2018-12-08T07:33:22.992Z,5.90
2018-12-08T07:38:26.327Z,5.90
2018-12-08T07:43:29.718Z,5.90
2018-12-08T07:48:33.015Z,6.00
2018-12-08T07:53:36.297Z,5.90
2018-12-08T07:58:39.587Z,6.00
2018-12-08T08:03:43.040Z,6.00
2018-12-08T08:08:46.638Z,6.10
2018-12-08T08:13:50.058Z,6.20
2018-12-08T08:18:53.427Z,6.20
2018-12-08T08:23:56.896Z,6.20
2018-12-08T08:29:00.326Z,6.30
2018-12-08T08:34:03.612Z,6.20
2018-12-08T08:39:08.047Z,6.30
2018-12-08T08:44:11.348Z,6.20
2018-12-08T08:49:14.617Z,6.20
2018-12-08T09:09:26.943Z,6.20
2018-12-08T09:14:30.323Z,6.20
2018-12-08T09:19:33.781Z,6.30
2018-12-08T09:24:37.202Z,6.50
2018-12-08T09:29:40.599Z,6.60
2018-12-08T09:34:43.969Z,6.60
2018-12-08T09:39:47.461Z,6.60
2018-12-08T09:44:50.826Z,6.70
2018-12-08T09:49:54.149Z,6.90
2018-12-08T09:54:57.551Z,7.30
2018-12-08T10:00:00.863Z,7.30
2018-12-08T10:05:04.306Z,7.30
2018-12-08T10:10:08.294Z,7.50
2018-12-08T10:20:14.698Z,7.70
2018-12-08T10:25:18.267Z,7.50
2018-12-08T10:30:21.599Z,7.50
2018-12-08T10:35:24.963Z,7.60
2018-12-08T10:40:28.279Z,7.60
2018-12-08T10:45:31.713Z,7.60
2018-12-08T10:50:35.031Z,7.60
2018-12-08T10:55:38.564Z,7.60
2018-12-08T11:00:47.187Z,7.60
2018-12-08T11:05:50.569Z,7.50
2018-12-08T11:10:53.859Z,7.50
2018-12-08T11:15:57.241Z,7.50
2018-12-08T11:21:00.564Z,7.40
2018-12-08T11:26:03.915Z,7.50
2018-12-08T11:31:07.386Z,7.50
2018-12-08T11:36:10.761Z,8.00
2018-12-08T11:51:20.400Z,8.10
2018-12-08T11:56:23.702Z,8.30
2018-12-08T12:01:27.116Z,8.10
2018-12-08T12:06:30.387Z,8.10
2018-12-08T12:11:33.714Z,8.00
2018-12-08T12:16:37.124Z,7.70
2018-12-08T12:21:40.545Z,7.60
2018-12-08T12:26:43.947Z,7.50
2018-12-08T12:31:47.268Z,7.40
2018-12-08T12:36:50.563Z,7.40
2018-12-08T12:41:53.994Z,7.30
2018-12-08T12:46:57.283Z,7.20
2018-12-08T12:52:00.826Z,7.10
2018-12-08T12:57:04.254Z,7.00
2018-12-08T13:02:07.556Z,6.90
2018-12-08T13:07:11.011Z,6.70
2018-12-08T13:12:14.528Z,6.80
2018-12-08T13:17:18.040Z,7.00
2018-12-08T13:22:21.457Z,7.00
2018-12-08T13:27:24.764Z,7.10
2018-12-08T13:32:28.202Z,7.10
2018-12-08T13:37:31.683Z,7.10
2018-12-08T13:42:35.079Z,7.10
2018-12-08T13:47:38.380Z,7.10
2018-12-08T13:52:41.796Z,7.10
2018-12-08T13:57:45.167Z,7.00
2018-12-08T14:02:48.832Z,7.00
2018-12-08T14:07:52.155Z,6.90
2018-12-08T14:12:55.736Z,7.00
2018-12-08T14:17:59.418Z,7.10
2018-12-08T14:23:02.936Z,7.00
2018-12-08T14:28:06.425Z,6.90
2018-12-08T14:33:09.843Z,6.90
2018-12-08T14:38:13.211Z,6.70
2018-12-08T14:43:16.782Z,6.60
2018-12-08T14:48:20.007Z,6.50
2018-12-08T14:53:23.448Z,6.50
2018-12-08T14:58:26.921Z,6.30
2018-12-08T15:03:30.299Z,6.30
2018-12-08T15:08:33.674Z,6.20
2018-12-08T15:13:37.022Z,6.10
2018-12-08T15:18:40.447Z,6.10
2018-12-08T15:23:43.897Z,6.10
2018-12-08T15:28:47.476Z,6.00
2018-12-08T15:33:51.129Z,6.00
2018-12-08T15:38:54.416Z,6.00
2018-12-08T15:43:57.864Z,5.90
2018-12-08T15:49:01.168Z,5.90
2018-12-08T15:54:04.454Z,5.90
2018-12-08T15:59:07.795Z,5.80
2018-12-08T16:04:11.251Z,5.80
2018-12-08T16:09:14.776Z,5.80
2018-12-08T16:14:18.129Z,5.90
2018-12-08T16:19:21.460Z,5.80
2018-12-08T16:24:24.951Z,5.80
2018-12-08T16:29:28.287Z,5.80
2018-12-08T16:34:31.684Z,5.80
2018-12-08T16:39:34.971Z,5.80
2018-12-08T16:44:38.275Z,5.80
2018-12-08T16:49:41.732Z,5.80
2018-12-08T16:54:45.091Z,5.80
2018-12-08T16:59:48.595Z,5.80
2018-12-08T17:04:52.069Z,5.80
2018-12-08T17:09:55.511Z,5.80
2018-12-08T17:14:58.814Z,5.90
2018-12-08T17:20:02.364Z,5.90
2018-12-08T17:25:05.903Z,5.90
2018-12-08T17:30:09.263Z,6.00
2018-12-08T17:35:12.555Z,6.00
2018-12-08T17:40:16.095Z,6.00
2018-12-08T17:45:20.523Z,6.10
2018-12-08T17:50:24.063Z,6.20
2018-12-08T17:55:27.402Z,6.20
2018-12-08T18:00:30.715Z,6.30
2018-12-08T18:05:34.230Z,6.40
2018-12-08T18:10:37.718Z,6.50
2018-12-08T18:15:41.051Z,6.50
2018-12-08T18:20:44.722Z,6.60
2018-12-08T18:25:48.220Z,6.60
2018-12-08T18:30:51.772Z,6.70
2018-12-08T18:35:55.321Z,6.70
2018-12-08T18:40:58.754Z,6.80
2018-12-08T18:46:02.396Z,6.80
2018-12-08T18:51:05.903Z,6.90
2018-12-08T18:56:09.340Z,6.90
2018-12-08T19:01:12.792Z,6.80
2018-12-08T19:06:16.191Z,6.60
2018-12-08T19:11:19.646Z,6.50
2018-12-08T19:16:22.973Z,6.50
2018-12-08T19:21:26.460Z,6.50
2018-12-08T19:31:33.000Z,6.50
2018-12-08T19:36:36.682Z,6.40
2018-12-08T19:41:40.226Z,6.30
2018-12-08T19:46:43.669Z,6.40
2018-12-08T19:51:47.083Z,6.30
2018-12-08T19:56:50.494Z,6.30
2018-12-08T20:01:53.996Z,6.30
2018-12-08T20:12:01.348Z,6.30
2018-12-08T20:17:04.734Z,6.30
2018-12-08T20:22:08.211Z,6.30
2018-12-08T20:27:11.866Z,6.40
2018-12-08T20:32:16.126Z,6.40
2018-12-08T20:37:19.705Z,6.40
2018-12-08T20:42:23.278Z,6.40
2018-12-08T20:47:27.278Z,6.40
2018-12-08T20:52:31.538Z,6.40
2018-12-08T20:57:35.143Z,6.40
2018-12-08T21:02:38.815Z,6.40
2018-12-08T21:07:42.429Z,6.40
2018-12-08T21:12:45.931Z,6.40
2018-12-08T21:17:49.454Z,6.40
2018-12-08T21:22:52.918Z,6.40
2018-12-08T21:27:56.585Z,6.50
2018-12-08T21:32:59.890Z,6.60
2018-12-08T21:38:03.242Z,6.50
2018-12-08T21:43:06.538Z,6.50
2018-12-08T21:48:10.045Z,6.50
2018-12-08T21:53:13.411Z,6.60
2018-12-08T21:58:16.771Z,6.60
2018-12-08T22:03:20.156Z,6.50
2018-12-08T22:08:23.495Z,6.60
2018-12-08T22:13:26.823Z,6.60
2018-12-08T22:18:30.257Z,6.60
2018-12-08T22:23:33.467Z,6.50
2018-12-08T22:28:36.763Z,6.50
2018-12-08T22:33:40.279Z,6.50
2018-12-08T22:38:47.117Z,6.50
2018-12-08T22:43:51.549Z,6.60
2018-12-08T22:48:56.082Z,6.60
2018-12-08T22:54:00.150Z,6.60
2018-12-08T22:59:03.572Z,6.60
2018-12-08T23:04:07.410Z,6.70
2018-12-08T23:14:14.830Z,6.80
2018-12-08T23:19:19.149Z,6.90
2018-12-08T23:24:22.418Z,6.90
2018-12-08T23:29:25.713Z,7.00
2018-12-08T23:34:29.043Z,7.00
2018-12-08T23:39:38.876Z,7.00
2018-12-08T23:44:35.771Z,7.00
2018-12-08T23:49:39.191Z,7.00
2018-12-08T23:54:42.484Z,7.00
2018-12-08T23:59:45.934Z,7.10
